createdAt,value
2018-09-05T00:00:22.473Z,16.90
2018-09-05T00:02:50.702Z,18.10
2018-09-05T00:05:18.949Z,19.00
2018-09-05T00:07:47.234Z,17.50
2018-09-05T00:10:15.481Z,15.77
2018-09-05T00:12:43.704Z,14.70
2018-09-05T00:15:11.962Z,15.70
2018-09-05T00:17:40.207Z,16.93
2018-09-05T00:20:08.418Z,15.87
2018-09-05T00:22:36.670Z,17.23
2018-09-05T00:25:04.933Z,14.80
2018-09-05T00:27:33.161Z,15.77
2018-09-05T00:30:01.522Z,13.70
2018-09-05T00:32:29.763Z,16.20
2018-09-05T00:34:57.982Z,14.00
2018-09-05T00:37:26.239Z,14.03
2018-09-05T00:39:54.487Z,13.50
2018-09-05T00:42:22.726Z,12.93
2018-09-05T00:44:50.965Z,13.00
2018-09-05T00:47:19.219Z,13.00
2018-09-05T00:49:47.440Z,15.07
2018-09-05T00:52:15.686Z,13.50
2018-09-05T00:54:43.905Z,16.13
2018-09-05T00:57:12.125Z,13.93
2018-09-05T00:59:40.354Z,15.60
2018-09-05T01:02:08.606Z,13.47
2018-09-05T01:04:36.846Z,13.00
2018-09-05T01:07:16.393Z,14.93
2018-09-05T01:09:44.598Z,14.20
2018-09-05T01:12:12.838Z,15.17
2018-09-05T01:14:41.054Z,14.40
2018-09-05T01:17:09.337Z,15.37
2018-09-05T01:19:37.555Z,17.00
2018-09-05T01:22:05.856Z,13.17
2018-09-05T01:24:34.086Z,14.40
2018-09-05T01:27:02.315Z,12.03
2018-09-05T01:29:30.841Z,12.63
2018-09-05T01:31:59.088Z,12.63
2018-09-05T01:34:27.362Z,15.60
2018-09-05T01:36:55.606Z,22.03
2018-09-05T01:39:23.824Z,13.77
2018-09-05T01:41:52.075Z,12.00
2018-09-05T01:44:20.317Z,12.97
2018-09-05T01:46:48.577Z,14.80
2018-09-05T01:49:16.818Z,11.40
2018-09-05T01:51:45.074Z,10.97
2018-09-05T01:54:13.305Z,14.80
2018-09-05T01:56:42.007Z,12.40
2018-09-05T01:59:10.256Z,15.10
2018-09-05T02:01:38.505Z,16.40
2018-09-05T02:04:06.801Z,13.37
2018-09-05T02:06:35.065Z,12.10
2018-09-05T02:09:03.397Z,12.47
2018-09-05T02:11:31.618Z,13.30
2018-09-05T02:13:59.857Z,12.10
2018-09-05T02:16:28.258Z,13.17
2018-09-05T02:18:56.653Z,12.30
2018-09-05T02:21:24.892Z,13.53
2018-09-05T02:23:53.110Z,14.03
2018-09-05T02:26:21.343Z,14.63
2018-09-05T02:28:49.574Z,13.30
2018-09-05T02:31:17.781Z,11.90
2018-09-05T02:33:46.008Z,15.17
2018-09-05T02:36:14.273Z,16.20
2018-09-05T02:38:42.509Z,15.10
2018-09-05T02:41:10.830Z,12.20
2018-09-05T02:43:44.437Z,12.50
2018-09-05T02:46:12.670Z,12.40
2018-09-05T02:48:40.889Z,13.47
2018-09-05T02:51:09.153Z,12.57
2018-09-05T02:53:37.409Z,14.80
2018-09-05T02:56:05.678Z,11.07
2018-09-05T02:58:34.718Z,10.20
2018-09-05T03:01:02.982Z,12.63
2018-09-05T03:03:31.467Z,13.93
2018-09-05T03:05:59.722Z,11.40
2018-09-05T03:08:27.998Z,10.93
2018-09-05T03:10:56.270Z,12.70
2018-09-05T03:13:24.517Z,10.57
2018-09-05T03:15:52.753Z,12.87
2018-09-05T03:18:21.006Z,9.00
2018-09-05T03:20:49.251Z,11.00
2018-09-05T03:23:17.483Z,11.70
2018-09-05T03:25:45.954Z,10.90
2018-09-05T03:28:14.187Z,12.50
2018-09-05T03:30:42.430Z,13.50
2018-09-05T03:33:10.734Z,10.87
2018-09-05T03:35:38.965Z,11.20
2018-09-05T03:38:07.193Z,10.93
2018-09-05T03:40:35.457Z,11.17
2018-09-05T03:43:03.689Z,11.60
2018-09-05T03:45:32.041Z,11.00
2018-09-05T03:48:01.365Z,11.60
2018-09-05T03:50:29.604Z,11.20
2018-09-05T03:52:57.845Z,11.10
2018-09-05T03:55:26.055Z,10.27
2018-09-05T03:57:54.311Z,10.40
2018-09-05T04:00:22.590Z,9.00
2018-09-05T04:02:50.868Z,10.30
2018-09-05T04:05:19.157Z,9.00
2018-09-05T04:07:47.381Z,9.03
2018-09-05T04:10:15.608Z,10.40
2018-09-05T04:12:43.830Z,9.60
2018-09-05T04:15:12.127Z,9.00
2018-09-05T04:17:40.373Z,9.63
2018-09-05T04:20:09.277Z,11.10
2018-09-05T04:22:37.509Z,10.40
2018-09-05T04:25:05.776Z,9.60
2018-09-05T04:27:34.070Z,9.40
2018-09-05T04:30:02.624Z,10.07
2018-09-05T04:32:30.874Z,10.10
2018-09-05T04:34:59.109Z,9.70
2018-09-05T04:37:27.350Z,9.97
2018-09-05T04:39:55.610Z,10.37
2018-09-05T04:42:23.878Z,9.67
2018-09-05T04:44:52.104Z,10.50
2018-09-05T04:47:20.317Z,9.93
2018-09-05T04:49:48.575Z,12.90
2018-09-05T04:52:17.029Z,10.07
2018-09-05T04:54:45.298Z,10.17
2018-09-05T04:57:13.602Z,9.53
2018-09-05T04:59:41.859Z,8.93
2018-09-05T05:02:10.151Z,9.90
2018-09-05T05:04:38.469Z,9.40
2018-09-05T05:07:06.622Z,9.33
2018-09-05T05:09:34.877Z,22.57
2018-09-05T05:12:03.128Z,13.27
2018-09-05T05:14:31.542Z,8.80
2018-09-05T05:16:59.780Z,10.23
2018-09-05T05:19:28.490Z,9.50
2018-09-05T05:21:56.758Z,8.40
2018-09-05T05:24:25.003Z,9.50
2018-09-05T05:26:53.246Z,9.83
2018-09-05T05:29:21.481Z,9.40
2018-09-05T05:31:49.714Z,8.17
2018-09-05T05:34:18.607Z,8.27
2018-09-05T05:36:46.954Z,8.77
2018-09-05T05:39:15.201Z,9.07
2018-09-05T05:41:43.422Z,9.20
2018-09-05T05:44:11.669Z,8.73
2018-09-05T05:46:39.963Z,11.90
2018-09-05T05:49:08.175Z,11.87
2018-09-05T05:51:36.497Z,8.63
2018-09-05T05:54:04.766Z,8.97
2018-09-05T05:56:33.081Z,8.60
2018-09-05T05:59:01.493Z,9.90
2018-09-05T06:01:29.758Z,9.80
2018-09-05T06:03:58.155Z,10.27
2018-09-05T06:06:26.487Z,9.93
2018-09-05T06:08:54.654Z,10.00
2018-09-05T06:11:22.920Z,10.30
2018-09-05T06:13:51.185Z,10.07
2018-09-05T06:16:19.494Z,10.07
2018-09-05T06:18:47.821Z,11.50
2018-09-05T06:21:16.207Z,9.97
2018-09-05T06:23:44.453Z,11.40
2018-09-05T06:26:12.638Z,9.50
2018-09-05T06:28:40.900Z,9.50
2018-09-05T06:31:09.295Z,9.13
2018-09-05T06:33:37.303Z,10.90
2018-09-05T06:36:05.517Z,10.77
2018-09-05T06:38:33.725Z,9.07
2018-09-05T06:41:01.930Z,10.07
2018-09-05T06:43:30.886Z,12.00
2018-09-05T06:45:59.074Z,9.47
2018-09-05T06:48:27.261Z,12.87
2018-09-05T06:51:01.042Z,10.00
2018-09-05T06:53:29.420Z,11.50
2018-09-05T06:55:57.602Z,10.77
2018-09-05T06:58:25.798Z,11.77
2018-09-05T07:00:54.002Z,10.33
2018-09-05T07:03:22.516Z,12.37
2018-09-05T07:05:50.765Z,10.20
2018-09-05T07:08:19.010Z,13.10
2018-09-05T07:10:47.311Z,12.33
2018-09-05T07:13:15.637Z,11.27
2018-09-05T07:15:44.013Z,11.30
2018-09-05T07:18:12.367Z,10.37
2018-09-05T07:20:40.670Z,11.33
2018-09-05T07:23:09.379Z,15.67
2018-09-05T07:25:37.652Z,10.40
2018-09-05T07:28:06.307Z,12.63
2018-09-05T07:30:34.737Z,11.77
2018-09-05T07:33:03.042Z,11.40
2018-09-05T07:35:31.469Z,11.60
2018-09-05T07:37:59.870Z,12.30
2018-09-05T07:40:28.225Z,11.37
2018-09-05T07:42:56.634Z,10.20
2018-09-05T07:45:25.598Z,10.80
2018-09-05T07:47:54.411Z,10.73
2018-09-05T07:50:22.753Z,11.60
2018-09-05T07:52:51.130Z,10.93
2018-09-05T07:55:19.714Z,11.67
2018-09-05T07:57:48.157Z,10.03
2018-09-05T08:00:16.601Z,9.37
2018-09-05T08:02:45.036Z,10.27
2018-09-05T08:05:13.489Z,10.10
2018-09-05T08:07:42.325Z,9.60
2018-09-05T08:10:10.758Z,9.27
2018-09-05T08:12:39.221Z,8.87
2018-09-05T08:15:08.137Z,9.43
2018-09-05T08:17:36.826Z,9.10
2018-09-05T08:20:05.354Z,10.57
2018-09-05T08:22:33.948Z,10.90
2018-09-05T08:25:02.369Z,8.20
2018-09-05T08:27:30.769Z,10.63
2018-09-05T08:29:59.163Z,8.07
2018-09-05T08:32:27.754Z,8.03
2018-09-05T08:34:56.563Z,10.90
2018-09-05T08:37:25.035Z,8.77
2018-09-05T08:39:54.041Z,8.83
2018-09-05T08:42:23.610Z,10.30
2018-09-05T08:44:52.150Z,9.57
2018-09-05T08:47:20.620Z,10.40
2018-09-05T08:49:49.109Z,9.10
2018-09-05T08:52:17.528Z,10.00
2018-09-05T08:54:45.986Z,12.43
2018-09-05T08:57:14.424Z,11.07
2018-09-05T08:59:42.990Z,11.73
2018-09-05T09:02:11.508Z,10.17
2018-09-05T09:04:40.258Z,11.37
2018-09-05T09:07:08.575Z,12.37
2018-09-05T09:09:37.022Z,12.23
2018-09-05T09:12:06.139Z,12.33
2018-09-05T09:14:34.582Z,12.03
2018-09-05T09:17:03.213Z,11.67
2018-09-05T09:19:31.609Z,15.43
2018-09-05T09:21:59.962Z,11.83
2018-09-05T09:24:28.405Z,11.50
2018-09-05T09:26:56.791Z,12.60
2018-09-05T09:29:25.223Z,12.20
2018-09-05T09:31:53.746Z,12.80
2018-09-05T09:34:22.242Z,13.90
2018-09-05T09:36:51.066Z,13.70
2018-09-05T09:39:19.542Z,15.07
2018-09-05T09:41:48.195Z,13.57
2018-09-05T09:44:16.636Z,13.23
2018-09-05T09:46:45.125Z,13.80
2018-09-05T09:49:13.476Z,14.30
2018-09-05T09:51:41.891Z,13.10
2018-09-05T09:54:10.329Z,12.97
2018-09-05T09:56:38.839Z,13.13
2018-09-05T09:59:07.331Z,13.77
2018-09-05T10:01:41.318Z,13.03
2018-09-05T10:04:14.998Z,13.97
2018-09-05T10:06:47.737Z,14.30
2018-09-05T10:09:21.548Z,14.63
2018-09-05T10:11:55.399Z,12.80
2018-09-05T10:14:29.021Z,14.10
2018-09-05T10:17:02.741Z,13.63
2018-09-05T10:19:32.444Z,14.00
2018-09-05T10:22:01.138Z,14.30
2018-09-05T10:24:30.009Z,12.63
2018-09-05T10:26:58.580Z,13.10
2018-09-05T10:29:27.134Z,14.67
2018-09-05T10:31:55.710Z,14.50
2018-09-05T10:34:25.284Z,13.93
2018-09-05T10:36:53.751Z,14.73
2018-09-05T10:39:22.750Z,14.33
2018-09-05T10:41:51.413Z,12.90
2018-09-05T10:44:20.642Z,12.93
2018-09-05T10:46:49.026Z,12.00
2018-09-05T10:49:17.446Z,13.23
2018-09-05T10:51:51.170Z,12.73
2018-09-05T10:54:19.771Z,11.97
2018-09-05T10:56:49.305Z,11.60
2018-09-05T10:59:17.874Z,12.80
2018-09-05T11:01:46.352Z,11.10
2018-09-05T11:04:14.818Z,10.47
2018-09-05T11:06:43.300Z,12.27
2018-09-05T11:09:12.474Z,11.80
2018-09-05T11:11:41.124Z,11.60
2018-09-05T11:14:10.538Z,12.57
2018-09-05T11:16:39.360Z,13.43
2018-09-05T11:19:08.307Z,11.60
2018-09-05T11:21:36.773Z,17.37
2018-09-05T11:24:06.438Z,13.60
2018-09-05T11:26:35.401Z,11.63
2018-09-05T11:29:03.962Z,11.90
2018-09-05T11:31:32.952Z,11.37
2018-09-05T11:34:01.370Z,11.93
2018-09-05T11:36:29.736Z,11.93
2018-09-05T11:38:58.217Z,12.50
2018-09-05T11:41:26.661Z,12.40
2018-09-05T11:43:55.313Z,11.50
2018-09-05T11:46:23.676Z,13.70
2018-09-05T11:48:52.334Z,12.53
2018-09-05T11:51:21.218Z,12.90
2018-09-05T11:53:49.641Z,14.07
2018-09-05T11:56:18.061Z,13.83
2018-09-05T11:58:46.681Z,13.87
2018-09-05T12:01:15.387Z,12.50
2018-09-05T12:03:43.765Z,14.13
2018-09-05T12:06:12.197Z,12.80
2018-09-05T12:08:40.635Z,12.80
2018-09-05T12:11:09.322Z,12.20
2018-09-05T12:13:37.733Z,13.30
2018-09-05T12:16:06.285Z,12.27
2018-09-05T12:18:34.755Z,11.50
2018-09-05T12:21:03.153Z,13.23
2018-09-05T12:23:32.808Z,13.57
2018-09-05T12:26:01.281Z,13.87
2018-09-05T12:28:29.742Z,16.60
2018-09-05T12:30:58.274Z,13.13
2018-09-05T12:33:26.897Z,13.50
2018-09-05T12:35:55.305Z,14.40
2018-09-05T12:38:23.873Z,13.37
2018-09-05T12:40:52.277Z,13.83
2018-09-05T12:43:20.821Z,12.63
2018-09-05T12:45:49.209Z,14.00
2018-09-05T12:48:17.585Z,12.73
2018-09-05T12:50:46.836Z,14.37
2018-09-05T12:53:15.200Z,14.27
2018-09-05T12:55:43.845Z,14.13
2018-09-05T12:58:12.290Z,13.93
2018-09-05T13:00:40.845Z,14.60
2018-09-05T13:03:09.293Z,15.07
2018-09-05T13:05:38.418Z,15.13
2018-09-05T13:08:06.869Z,16.40
2018-09-05T13:10:35.673Z,15.73
2018-09-05T13:13:04.508Z,15.90
2018-09-05T13:15:33.130Z,15.87
2018-09-05T13:18:02.484Z,15.83
2018-09-05T13:20:30.850Z,15.17
2018-09-05T13:22:59.453Z,13.87
2018-09-05T13:25:27.830Z,13.57
2018-09-05T13:27:57.128Z,14.27
2018-09-05T13:30:25.593Z,15.30
2018-09-05T13:32:54.072Z,13.93
2018-09-05T13:35:22.797Z,12.90
2018-09-05T13:37:51.652Z,13.63
2018-09-05T13:40:20.198Z,13.60
2018-09-05T13:42:49.555Z,13.90
2018-09-05T13:45:17.945Z,14.23
2018-09-05T13:47:46.335Z,13.77
2018-09-05T13:50:15.763Z,12.30
2018-09-05T13:52:44.135Z,15.00
2018-09-05T13:55:12.567Z,12.90
2018-09-05T13:57:40.946Z,13.90
2018-09-05T14:00:13.728Z,13.60
2018-09-05T14:02:42.292Z,14.90
2018-09-05T14:05:11.309Z,14.50
2018-09-05T14:07:39.816Z,14.37
2018-09-05T14:10:08.253Z,13.50
2018-09-05T14:12:36.759Z,13.00
2018-09-05T14:15:05.746Z,14.53
2018-09-05T14:17:35.753Z,14.60
2018-09-05T14:20:05.062Z,14.67
2018-09-05T14:22:33.827Z,14.17
2018-09-05T14:25:02.278Z,14.93
2018-09-05T14:27:30.710Z,14.40
2018-09-05T14:29:59.130Z,15.50
2018-09-05T14:32:27.674Z,13.83
2018-09-05T14:34:56.189Z,13.50
2018-09-05T14:37:24.613Z,14.43
2018-09-05T14:39:53.580Z,15.93
2018-09-05T14:42:21.882Z,14.23
2018-09-05T14:44:50.484Z,15.70
2018-09-05T14:47:19.142Z,15.03
2018-09-05T14:49:47.549Z,14.60
2018-09-05T14:52:15.997Z,15.73
2018-09-05T14:54:44.398Z,15.73
2018-09-05T14:57:12.941Z,14.33
2018-09-05T14:59:41.491Z,15.40
2018-09-05T15:02:09.905Z,14.13
2018-09-05T15:04:38.437Z,15.67
2018-09-05T15:07:08.141Z,15.80
2018-09-05T15:09:36.675Z,17.90
2018-09-05T15:12:05.142Z,17.87
2018-09-05T15:14:33.590Z,17.50
2018-09-05T15:17:02.008Z,17.80
2018-09-05T15:19:30.739Z,17.73
2018-09-05T15:21:59.135Z,17.00
2018-09-05T15:24:27.522Z,18.07
2018-09-05T15:26:56.127Z,16.90
2018-09-05T15:29:24.550Z,18.20
2018-09-05T15:31:53.038Z,20.03
2018-09-05T15:34:21.455Z,19.37
2018-09-05T15:36:50.012Z,18.50
2018-09-05T15:39:18.472Z,19.90
2018-09-05T15:41:47.003Z,18.97
2018-09-05T15:44:15.570Z,19.10
2018-09-05T15:46:44.002Z,18.77
2018-09-05T15:49:12.541Z,18.90
2018-09-05T15:51:41.109Z,20.77
2018-09-05T15:54:09.483Z,22.60
2018-09-05T15:56:37.751Z,19.73
2018-09-05T15:59:06.030Z,22.57
2018-09-05T16:01:34.321Z,24.03
2018-09-05T16:04:02.601Z,22.27
2018-09-05T16:06:30.882Z,25.50
2018-09-05T16:08:59.356Z,27.07
2018-09-05T16:11:27.533Z,25.90
2018-09-05T16:13:55.788Z,26.10
2018-09-05T16:16:24.184Z,25.10
2018-09-05T16:18:52.443Z,26.30
2018-09-05T16:21:20.809Z,28.23
2018-09-05T16:23:49.034Z,26.73
2018-09-05T16:26:17.392Z,24.60
2018-09-05T16:28:45.654Z,25.67
2018-09-05T16:31:13.902Z,26.33
2018-09-05T16:33:42.125Z,25.50
2018-09-05T16:36:10.878Z,24.80
2018-09-05T16:38:39.084Z,24.30
2018-09-05T16:41:07.359Z,27.83
2018-09-05T16:43:35.737Z,26.60
2018-09-05T16:46:04.008Z,28.40
2018-09-05T16:48:32.301Z,28.70
2018-09-05T16:51:00.502Z,28.77
2018-09-05T16:53:28.768Z,26.80
2018-09-05T16:55:57.061Z,28.53
2018-09-05T16:58:25.339Z,28.50
2018-09-05T17:00:53.798Z,29.67
2018-09-05T17:03:22.037Z,27.80
2018-09-05T17:05:50.257Z,28.20
2018-09-05T17:08:18.459Z,29.00
2018-09-05T17:10:46.685Z,33.60
2018-09-05T17:13:14.923Z,30.70
2018-09-05T17:15:43.377Z,31.30
2018-09-05T17:18:11.875Z,31.80
2018-09-05T17:20:40.176Z,31.87
2018-09-05T17:23:08.390Z,31.17
2018-09-05T17:25:36.639Z,32.93
2018-09-05T17:28:04.898Z,30.83
2018-09-05T17:30:33.166Z,31.87
2018-09-05T17:33:01.418Z,32.90
2018-09-05T17:35:29.674Z,32.23
2018-09-05T17:37:57.938Z,31.87
2018-09-05T17:40:26.348Z,33.37
2018-09-05T17:42:54.581Z,35.53
2018-09-05T17:45:22.822Z,34.90
2018-09-05T17:47:51.131Z,34.80
2018-09-05T17:50:19.542Z,33.03
2018-09-05T17:52:47.798Z,35.47
2018-09-05T17:55:16.113Z,36.27
2018-09-05T17:57:44.435Z,38.50
2018-09-05T18:00:12.937Z,35.47
2018-09-05T18:02:41.463Z,37.30
2018-09-05T18:05:09.694Z,37.40
2018-09-05T18:07:37.955Z,37.93
2018-09-05T18:10:06.258Z,38.37
2018-09-05T18:12:34.833Z,36.33
2018-09-05T18:15:03.349Z,37.83
2018-09-05T18:17:31.677Z,37.67
2018-09-05T18:19:59.928Z,39.50
2018-09-05T18:22:28.179Z,38.37
2018-09-05T18:24:56.649Z,39.00
2018-09-05T18:27:24.926Z,39.60
2018-09-05T18:29:53.176Z,40.00
2018-09-05T18:32:21.438Z,41.30
2018-09-05T18:34:49.704Z,38.30
2018-09-05T18:37:18.019Z,41.50
2018-09-05T18:39:46.323Z,39.00
2018-09-05T18:42:14.615Z,39.07
2018-09-05T18:44:42.862Z,42.00
2018-09-05T18:47:11.379Z,42.40
2018-09-05T18:49:39.763Z,43.30
2018-09-05T18:52:08.247Z,41.93
2018-09-05T18:54:36.714Z,44.10
2018-09-05T18:57:05.269Z,42.40
2018-09-05T18:59:33.804Z,41.53
2018-09-05T19:02:02.233Z,43.97
2018-09-05T19:04:30.668Z,43.53
2018-09-05T19:06:59.681Z,45.07
2018-09-05T19:09:28.078Z,44.03
2018-09-05T19:11:56.442Z,44.07
2018-09-05T19:14:24.869Z,47.90
2018-09-05T19:16:53.316Z,46.27
2018-09-05T19:19:21.771Z,46.23
2018-09-05T19:21:50.142Z,44.60
2018-09-05T19:24:18.565Z,47.90
2018-09-05T19:26:46.979Z,49.37
2018-09-05T19:29:15.464Z,48.00
2018-09-05T19:31:43.956Z,50.20
2018-09-05T19:34:12.367Z,49.50
2018-09-05T19:36:40.817Z,50.17
2018-09-05T19:39:10.000Z,48.47
2018-09-05T19:41:38.450Z,50.60
2018-09-05T19:44:06.977Z,50.03
2018-09-05T19:46:35.405Z,51.80
2018-09-05T19:49:03.727Z,47.80
2018-09-05T19:51:32.013Z,49.27
2018-09-05T19:54:00.429Z,52.23
2018-09-05T19:56:28.742Z,52.00
2018-09-05T19:58:57.157Z,52.00
2018-09-05T20:01:25.577Z,54.10
2018-09-05T20:03:54.113Z,51.33
2018-09-05T20:06:22.514Z,53.00
2018-09-05T20:08:50.939Z,53.33
2018-09-05T20:11:20.001Z,51.70
2018-09-05T20:13:48.234Z,54.40
2018-09-05T20:16:16.461Z,54.33
2018-09-05T20:18:44.775Z,53.40
2018-09-05T20:21:13.657Z,57.77
2018-09-05T20:23:41.930Z,58.97
2018-09-05T20:26:10.218Z,55.93
2018-09-05T20:28:38.510Z,57.73
2018-09-05T20:31:06.742Z,58.07
2018-09-05T20:33:35.215Z,58.90
2018-09-05T20:36:04.366Z,56.90
2018-09-05T20:38:32.607Z,58.83
2018-09-05T20:41:00.907Z,59.97
2018-09-05T20:43:29.175Z,58.13
2018-09-05T20:45:57.341Z,58.87
2018-09-05T20:48:25.574Z,59.63
2018-09-05T20:50:53.804Z,59.90
2018-09-05T20:53:22.024Z,64.70
2018-09-05T20:55:50.249Z,61.07
2018-09-05T20:58:18.547Z,57.37
2018-09-05T21:00:46.796Z,59.03
2018-09-05T21:03:15.016Z,62.13
2018-09-05T21:05:43.249Z,62.50
2018-09-05T21:08:11.509Z,61.33
2018-09-05T21:10:39.742Z,62.40
2018-09-05T21:13:08.013Z,63.27
2018-09-05T21:15:36.233Z,62.00
2018-09-05T21:18:04.503Z,58.53
2018-09-05T21:20:33.035Z,58.07
2018-09-05T21:23:01.273Z,60.87
2018-09-05T21:25:29.531Z,62.40
2018-09-05T21:27:57.757Z,56.83
2018-09-05T21:30:25.974Z,62.97
2018-09-05T21:32:54.181Z,61.50
2018-09-05T21:35:22.393Z,76.63
2018-09-05T21:37:50.614Z,64.97
2018-09-05T21:40:18.845Z,77.73
2018-09-05T21:42:47.185Z,77.70
2018-09-05T21:45:15.426Z,72.57
2018-09-05T21:47:43.651Z,73.10
2018-09-05T21:50:11.885Z,84.00
2018-09-05T21:52:40.138Z,88.47
2018-09-05T21:55:08.394Z,75.63
2018-09-05T21:57:36.616Z,69.37
2018-09-05T22:00:06.162Z,72.90
2018-09-05T22:02:34.374Z,79.13
2018-09-05T22:05:02.906Z,75.50
2018-09-05T22:07:31.157Z,76.63
2018-09-05T22:09:59.404Z,67.70
2018-09-05T22:12:27.637Z,68.97
2018-09-05T22:14:55.845Z,65.60
2018-09-05T22:17:24.117Z,68.60
2018-09-05T22:19:52.394Z,66.83
2018-09-05T22:22:20.626Z,68.90
2018-09-05T22:24:48.861Z,67.40
2018-09-05T22:27:17.409Z,70.80
2018-09-05T22:29:45.670Z,68.13
2018-09-05T22:32:13.954Z,69.27
2018-09-05T22:34:42.154Z,75.60
2018-09-05T22:37:10.521Z,77.77
2018-09-05T22:39:38.811Z,77.17
2018-09-05T22:42:07.047Z,72.20
2018-09-05T22:44:46.614Z,72.67
2018-09-05T22:47:26.189Z,69.50
2018-09-05T22:50:11.279Z,62.60
2018-09-05T22:57:05.154Z,62.13
2018-09-05T23:00:01.316Z,60.47
2018-09-05T23:04:39.555Z,60.90
2018-09-05T23:07:31.884Z,58.80
2018-09-05T23:10:11.507Z,62.97
2018-09-05T23:12:51.073Z,57.60
2018-09-05T23:15:30.618Z,60.07
2018-09-05T23:18:42.925Z,56.13
2018-09-05T23:21:19.014Z,53.30
2018-09-05T23:23:58.326Z,54.33
2018-09-05T23:26:26.826Z,50.83
2018-09-05T23:28:55.220Z,52.27
2018-09-05T23:31:23.803Z,50.00
2018-09-05T23:33:52.106Z,47.87
2018-09-05T23:36:20.733Z,48.43
2018-09-05T23:38:49.027Z,48.33
2018-09-05T23:41:17.279Z,46.17
2018-09-05T23:43:45.531Z,47.37
2018-09-05T23:46:14.050Z,45.30
2018-09-05T23:48:42.312Z,47.40
2018-09-05T23:51:10.744Z,46.10
2018-09-05T23:53:38.974Z,48.17
2018-09-05T23:56:07.239Z,46.17
2018-09-05T23:58:35.479Z,47.90
